Time;durP1;ratioP1;P1;durP2;ratioP2;P2;SDS_P1;SDS_P2;PMS_P1;PMS_P2;Temp;Humidity;BMP_temperature;BMP_pressure;BME280_temperature;BME280_humidity;BME280_pressure;Samples;Min_cycle;Max_cycle;Signal;HPM_P1;HPM_P2
2021/10/11 00:02:07;;;;;;;12.38;6.88;;;3.00;99.90;;;;;;5037541;28;20025;-70
2021/10/11 00:04:35;;;;;;;15.30;7.55;;;3.10;99.90;;;;;;5038194;28;20021;-70
2021/10/11 00:07:04;;;;;;;17.98;9.48;;;3.10;99.90;;;;;;5037455;28;20093;-70
2021/10/11 00:09:32;;;;;;;17.52;8.43;;;3.10;99.90;;;;;;5037497;28;20043;-70
2021/10/11 00:12:00;;;;;;;19.60;8.23;;;3.10;99.90;;;;;;5037863;28;20018;-71
2021/10/11 00:14:27;;;;;;;13.30;7.68;;;3.20;99.90;;;;;;5037591;28;20022;-70
2021/10/11 00:16:55;;;;;;;14.18;7.55;;;3.20;99.90;;;;;;5037877;28;20436;-70
2021/10/11 00:19:23;;;;;;;14.63;6.97;;;3.10;99.90;;;;;;5037371;28;20090;-70
2021/10/11 00:21:50;;;;;;;16.02;6.90;;;3.10;99.90;;;;;;5037637;28;20029;-70
2021/10/11 00:24:18;;;;;;;15.35;8.20;;;3.10;99.90;;;;;;5036627;28;20072;-70
2021/10/11 00:26:45;;;;;;;17.33;7.05;;;3.10;99.90;;;;;;5036340;28;20021;-70
2021/10/11 00:29:13;;;;;;;16.70;7.45;;;3.00;99.90;;;;;;5040040;28;20482;-70
2021/10/11 00:31:41;;;;;;;15.40;7.72;;;3.00;99.90;;;;;;5040509;28;20022;-70
2021/10/11 00:34:09;;;;;;;16.08;7.65;;;3.00;99.90;;;;;;5041140;28;20022;-70
2021/10/11 00:36:37;;;;;;;14.75;8.02;;;3.00;99.90;;;;;;5040379;28;20068;-70
2021/10/11 00:39:04;;;;;;;17.10;7.75;;;3.00;99.90;;;;;;5040401;28;20083;-70
2021/10/11 00:41:32;;;;;;;16.33;7.95;;;3.00;99.90;;;;;;5040342;28;20029;-70
2021/10/11 00:44:01;;;;;;;16.55;8.40;;;2.90;99.90;;;;;;5039247;28;20053;-71
2021/10/11 00:46:28;;;;;;;21.27;9.23;;;3.00;99.90;;;;;;5040861;28;20064;-70
2021/10/11 00:48:56;;;;;;;19.33;8.60;;;3.00;99.90;;;;;;5040022;28;20021;-70
2021/10/11 00:51:23;;;;;;;32.10;10.23;;;3.00;99.90;;;;;;5039978;28;20322;-70
2021/10/11 00:53:50;;;;;;;23.30;11.40;;;3.10;99.90;;;;;;5041186;28;20100;-70
2021/10/11 00:56:18;;;;;;;20.80;10.30;;;3.10;99.90;;;;;;5039895;28;20021;-70
2021/10/11 00:58:46;;;;;;;22.50;13.30;;;3.20;99.90;;;;;;5041467;28;20092;-70
2021/10/11 01:01:13;;;;;;;25.23;9.93;;;3.20;99.90;;;;;;5041536;28;20022;-70
2021/10/11 01:03:41;;;;;;;16.98;9.23;;;3.20;99.90;;;;;;5041240;28;20030;-70
2021/10/11 01:06:08;;;;;;;17.73;8.57;;;3.20;99.90;;;;;;5039825;28;20028;-70
2021/10/11 01:08:36;;;;;;;21.52;10.27;;;3.20;99.90;;;;;;5040362;28;20079;-70
2021/10/11 01:11:03;;;;;;;24.63;12.20;;;3.20;99.90;;;;;;5039954;28;20022;-70
2021/10/11 01:13:31;;;;;;;25.92;12.18;;;3.30;99.90;;;;;;5039725;28;20021;-70
2021/10/11 01:15:58;;;;;;;24.35;12.57;;;3.30;99.90;;;;;;5040238;28;20107;-70
2021/10/11 01:18:26;;;;;;;31.73;12.77;;;3.40;99.90;;;;;;5039528;28;20030;-70
2021/10/11 01:20:54;;;;;;;27.30;11.95;;;3.50;99.90;;;;;;5040281;28;20410;-70
2021/10/11 01:23:25;;;;;;;24.45;12.23;;;3.50;99.90;;;;;;5040071;28;20056;-70
2021/10/11 01:25:54;;;;;;;20.42;11.38;;;3.60;99.90;;;;;;5039765;28;20440;-70
2021/10/11 01:28:22;;;;;;;24.75;10.82;;;3.60;99.90;;;;;;5040494;28;20021;-70
2021/10/11 01:30:49;;;;;;;22.05;11.43;;;3.70;99.90;;;;;;5040532;28;20475;-70
2021/10/11 01:33:16;;;;;;;21.27;12.10;;;3.80;99.90;;;;;;5040705;28;20056;-70
2021/10/11 01:35:44;;;;;;;25.23;12.40;;;3.80;99.90;;;;;;5040811;28;20342;-70
2021/10/11 01:38:12;;;;;;;31.65;13.88;;;3.80;99.90;;;;;;5039923;28;20021;-70
2021/10/11 01:40:41;;;;;;;25.02;12.80;;;3.90;99.90;;;;;;5039261;28;20334;-70
2021/10/11 01:43:09;;;;;;;25.70;12.38;;;4.00;99.90;;;;;;5040616;28;20056;-70
2021/10/11 01:45:37;;;;;;;24.98;12.32;;;4.00;99.90;;;;;;5039865;28;20460;-71
2021/10/11 01:48:06;;;;;;;35.17;16.38;;;4.10;99.90;;;;;;5039670;28;20021;-70
2021/10/11 01:50:33;;;;;;;28.25;14.93;;;4.10;99.90;;;;;;5039771;28;20018;-70
2021/10/11 01:53:01;;;;;;;30.40;15.05;;;4.20;99.90;;;;;;5039034;28;20056;-70
2021/10/11 01:55:28;;;;;;;29.88;14.88;;;4.30;99.90;;;;;;5039004;28;20021;-71
2021/10/11 01:57:55;;;;;;;30.17;14.48;;;4.30;99.90;;;;;;5039212;28;20310;-70
2021/10/11 02:00:23;;;;;;;28.60;13.48;;;4.40;99.90;;;;;;5039575;28;20295;-70
2021/10/11 02:02:50;;;;;;;25.58;13.40;;;4.40;99.90;;;;;;5037759;28;20017;-70
2021/10/11 02:05:18;;;;;;;28.08;13.57;;;4.50;99.90;;;;;;5039283;28;20033;-70
2021/10/11 02:07:46;;;;;;;32.00;14.55;;;4.50;99.90;;;;;;5038724;28;20040;-70
2021/10/11 02:10:14;;;;;;;27.25;13.90;;;4.60;99.90;;;;;;5039130;28;20417;-71
2021/10/11 02:12:41;;;;;;;29.98;14.02;;;4.60;99.90;;;;;;5039600;28;20026;-70
2021/10/11 02:15:09;;;;;;;27.00;14.15;;;4.60;99.90;;;;;;5038451;28;20083;-70
2021/10/11 02:17:36;;;;;;;31.15;14.50;;;4.70;99.90;;;;;;5038923;28;20033;-70
2021/10/11 02:20:05;;;;;;;31.95;15.77;;;4.80;99.90;;;;;;5039649;28;20025;-70
2021/10/11 02:22:33;;;;;;;38.60;19.00;;;4.80;99.90;;;;;;5039614;28;20025;-70
2021/10/11 02:25:00;;;;;;;52.35;22.52;;;4.90;99.90;;;;;;5039376;28;20025;-70
2021/10/11 02:27:27;;;;;;;43.72;20.45;;;5.00;99.90;;;;;;5039715;28;20032;-70
2021/10/11 02:29:54;;;;;;;50.33;23.85;;;5.10;99.90;;;;;;5039554;28;20104;-70
2021/10/11 02:32:23;;;;;;;43.85;20.63;;;5.10;99.90;;;;;;5037109;28;20029;-70
2021/10/11 02:34:50;;;;;;;44.15;22.17;;;5.20;99.90;;;;;;5038477;28;20322;-70
2021/10/11 02:37:17;;;;;;;61.70;27.38;;;5.20;99.90;;;;;;5038963;28;20337;-70
2021/10/11 02:39:44;;;;;;;58.28;25.52;;;5.30;99.90;;;;;;5037074;28;20115;-71
2021/10/11 02:42:15;;;;;;;55.08;25.58;;;5.40;99.90;;;;;;5039142;28;20349;-70
2021/10/11 02:44:43;;;;;;;69.35;28.25;;;5.50;99.90;;;;;;5038233;28;20048;-71
2021/10/11 02:47:10;;;;;;;68.85;31.42;;;5.50;99.90;;;;;;5038164;28;20034;-71
2021/10/11 02:49:38;;;;;;;57.75;25.95;;;5.60;99.90;;;;;;5037805;28;20021;-71
2021/10/11 02:52:06;;;;;;;64.57;29.02;;;5.70;99.90;;;;;;5037935;28;20417;-71
2021/10/11 02:54:33;;;;;;;65.22;30.25;;;5.70;99.90;;;;;;5039445;28;20025;-71
2021/10/11 02:57:01;;;;;;;82.30;32.65;;;5.80;99.90;;;;;;5038265;28;20371;-70
2021/10/11 02:59:28;;;;;;;84.97;33.42;;;5.90;99.90;;;;;;5038677;28;20032;-70
2021/10/11 03:01:57;;;;;;;79.20;31.90;;;6.00;99.90;;;;;;5038580;28;20029;-70
2021/10/11 03:04:24;;;;;;;94.32;37.95;;;6.20;99.90;;;;;;5038884;28;20373;-71
2021/10/11 03:06:51;;;;;;;89.53;36.20;;;6.30;99.90;;;;;;5038943;28;20088;-71
2021/10/11 03:09:19;;;;;;;80.15;37.80;;;6.30;99.90;;;;;;5039005;28;20022;-70
2021/10/11 03:11:46;;;;;;;72.90;34.13;;;6.40;99.90;;;;;;5038118;28;20029;-71
2021/10/11 03:14:13;;;;;;;75.93;33.17;;;6.40;99.90;;;;;;5038205;28;20063;-71
2021/10/11 03:16:41;;;;;;;85.15;33.33;;;6.50;99.90;;;;;;5037696;28;20018;-71
2021/10/11 03:19:09;;;;;;;75.60;33.08;;;6.50;99.90;;;;;;5037662;28;20030;-71
2021/10/11 03:21:36;;;;;;;74.85;31.45;;;6.60;99.90;;;;;;5037316;28;20037;-71
2021/10/11 03:24:04;;;;;;;89.70;36.22;;;6.60;99.90;;;;;;5036404;28;20037;-71
2021/10/11 03:26:33;;;;;;;91.93;38.53;;;6.70;99.90;;;;;;5037692;28;20076;-70
2021/10/11 03:29:00;;;;;;;98.65;39.63;;;6.70;99.90;;;;;;5037507;28;20084;-70
2021/10/11 03:31:27;;;;;;;104.18;37.05;;;6.80;99.90;;;;;;5036075;28;20032;-71
2021/10/11 03:33:55;;;;;;;106.95;40.75;;;6.90;99.90;;;;;;5037286;28;20318;-71
2021/10/11 03:36:22;;;;;;;102.72;38.88;;;7.00;99.90;;;;;;5037237;28;20033;-70
2021/10/11 03:38:50;;;;;;;99.85;37.58;;;7.10;99.90;;;;;;5038562;28;20017;-70
2021/10/11 03:41:17;;;;;;;112.85;38.45;;;7.20;99.90;;;;;;5036809;28;20488;-70
2021/10/11 03:43:44;;;;;;;109.57;39.30;;;7.20;99.90;;;;;;5036811;28;20029;-71
2021/10/11 03:46:12;;;;;;;104.68;37.60;;;7.30;99.90;;;;;;5036241;28;20049;-71
2021/10/11 03:48:39;;;;;;;93.22;35.65;;;7.40;99.90;;;;;;5038199;28;20022;-71
2021/10/11 03:51:07;;;;;;;98.18;36.45;;;7.40;99.90;;;;;;5037706;28;20017;-70
2021/10/11 03:53:35;;;;;;;119.40;42.83;;;7.40;99.90;;;;;;5036574;28;20028;-71
2021/10/11 03:56:02;;;;;;;107.65;38.60;;;7.50;99.90;;;;;;5035687;28;20076;-71
2021/10/11 03:58:29;;;;;;;97.20;36.67;;;7.60;99.90;;;;;;5036881;28;20079;-71
2021/10/11 04:00:57;;;;;;;112.88;43.55;;;7.60;99.90;;;;;;5037320;28;20092;-71
2021/10/11 04:03:25;;;;;;;115.50;41.63;;;7.70;99.90;;;;;;5036559;28;20030;-71
2021/10/11 04:05:52;;;;;;;84.43;35.42;;;7.80;99.90;;;;;;5035513;28;20142;-71
2021/10/11 04:08:21;;;;;;;93.65;36.65;;;7.90;99.90;;;;;;5037131;28;20022;-71
2021/10/11 04:10:59;;;;;;;68.38;28.90;;;8.00;99.90;;;;;;5036777;28;20148;-71
2021/10/11 04:13:28;;;;;;;81.82;35.13;;;8.00;99.90;;;;;;5037105;28;20104;-71
2021/10/11 04:15:55;;;;;;;91.43;37.60;;;8.10;99.90;;;;;;5037132;28;20037;-71
2021/10/11 04:18:23;;;;;;;85.38;39.47;;;8.20;99.90;;;;;;5037800;28;20104;-71
2021/10/11 04:20:51;;;;;;;87.72;39.72;;;8.20;99.90;;;;;;5037851;28;20029;-71
2021/10/11 04:23:18;;;;;;;82.10;37.20;;;8.20;99.90;;;;;;5036249;28;20052;-70
2021/10/11 04:25:47;;;;;;;91.20;40.67;;;8.20;99.90;;;;;;5037775;28;20124;-68
2021/10/11 04:28:15;;;;;;;89.05;40.92;;;8.20;99.90;;;;;;5037270;28;20025;-69
2021/10/11 04:30:43;;;;;;;92.28;39.90;;;8.30;99.90;;;;;;5037948;28;20048;-69
2021/10/11 04:33:11;;;;;;;91.43;39.53;;;8.30;99.90;;;;;;5037168;28;20060;-69
2021/10/11 04:35:39;;;;;;;99.32;38.30;;;8.30;99.90;;;;;;5037276;28;20075;-69
2021/10/11 04:38:07;;;;;;;88.63;37.53;;;8.20;99.90;;;;;;5036922;28;20313;-69
2021/10/11 04:40:35;;;;;;;98.20;39.20;;;8.30;99.90;;;;;;5036458;28;20029;-69
2021/10/11 04:43:03;;;;;;;106.35;41.58;;;8.30;99.90;;;;;;5035153;28;20026;-69
2021/10/11 04:45:30;;;;;;;105.68;40.00;;;8.30;99.90;;;;;;5036481;28;20437;-69
2021/10/11 04:48:00;;;;;;;105.03;40.13;;;8.30;99.90;;;;;;5035140;28;20376;-69
2021/10/11 04:50:29;;;;;;;105.57;40.08;;;8.40;99.90;;;;;;5036284;28;20017;-69
2021/10/11 04:52:57;;;;;;;99.97;37.35;;;8.40;99.90;;;;;;5036732;28;20494;-69
2021/10/11 04:55:25;;;;;;;96.93;38.45;;;8.40;99.90;;;;;;5036690;28;20072;-69
2021/10/11 04:57:52;;;;;;;99.93;38.83;;;8.40;99.90;;;;;;5036963;28;20256;-69
2021/10/11 05:00:20;;;;;;;98.25;39.85;;;8.40;99.90;;;;;;5036882;28;20089;-69
2021/10/11 05:02:48;;;;;;;97.13;38.97;;;8.40;99.90;;;;;;5037033;28;20140;-69
2021/10/11 05:05:15;;;;;;;95.97;37.88;;;8.40;99.90;;;;;;5037171;28;20028;-69
2021/10/11 05:07:42;;;;;;;91.70;36.50;;;8.40;99.90;;;;;;5035778;28;20093;-69
2021/10/11 05:10:10;;;;;;;92.75;38.00;;;8.40;99.90;;;;;;5035891;28;20021;-69
2021/10/11 05:12:38;;;;;;;94.20;37.47;;;8.40;99.90;;;;;;5036922;28;20072;-69
2021/10/11 05:15:07;;;;;;;88.68;35.20;;;8.40;99.90;;;;;;5040682;28;20030;-69
2021/10/11 05:17:34;;;;;;;95.05;38.17;;;8.40;99.90;;;;;;5040605;28;20417;-69
2021/10/11 05:20:02;;;;;;;91.43;37.08;;;8.50;99.90;;;;;;5038800;28;20036;-69
2021/10/11 05:22:30;;;;;;;103.72;39.25;;;8.50;99.90;;;;;;5039724;28;20044;-69
2021/10/11 05:24:57;;;;;;;105.95;38.47;;;8.50;99.90;;;;;;5039760;28;20075;-69
2021/10/11 05:27:25;;;;;;;97.32;36.72;;;8.60;99.90;;;;;;5039391;28;20498;-69
2021/10/11 05:29:53;;;;;;;102.35;38.17;;;8.50;99.90;;;;;;5039465;28;20108;-70
2021/10/11 05:32:21;;;;;;;105.88;36.92;;;8.60;99.90;;;;;;5039314;28;20417;-69
2021/10/11 05:34:49;;;;;;;99.97;37.78;;;8.60;99.90;;;;;;5040051;28;20104;-68
2021/10/11 05:37:17;;;;;;;97.35;36.85;;;8.60;99.90;;;;;;5039217;28;20459;-69
2021/10/11 05:39:45;;;;;;;101.93;38.53;;;8.60;99.90;;;;;;5039319;28;20025;-69
2021/10/11 05:42:13;;;;;;;102.43;37.45;;;8.60;99.90;;;;;;5040483;28;20021;-69
2021/10/11 05:44:40;;;;;;;107.38;37.13;;;8.60;99.90;;;;;;5039139;28;20025;-69
2021/10/11 05:47:09;;;;;;;107.50;36.63;;;8.60;99.90;;;;;;5039824;28;20037;-69
2021/10/11 05:49:36;;;;;;;98.85;36.50;;;8.60;99.90;;;;;;5040231;28;20033;-69
2021/10/11 05:52:05;;;;;;;122.75;39.00;;;8.50;99.90;;;;;;5038870;28;20022;-69
2021/10/11 05:54:32;;;;;;;104.78;36.58;;;8.60;99.90;;;;;;5040328;28;20021;-68
2021/10/11 05:56:59;;;;;;;103.50;37.45;;;8.60;99.90;;;;;;5038817;28;20111;-68
2021/10/11 05:59:37;;;;;;;96.72;36.17;;;8.60;99.90;;;;;;5040289;28;20022;-68
2021/10/11 06:02:04;;;;;;;103.80;36.58;;;8.60;99.90;;;;;;5039290;28;20441;-69
2021/10/11 06:04:31;;;;;;;105.45;37.67;;;8.60;99.90;;;;;;5038913;28;20314;-68
2021/10/11 06:06:59;;;;;;;100.72;36.67;;;8.60;99.90;;;;;;5039220;28;20061;-68
2021/10/11 06:09:26;;;;;;;99.20;35.28;;;8.50;99.90;;;;;;5039269;28;20028;-69
2021/10/11 06:11:54;;;;;;;115.63;37.13;;;8.50;99.90;;;;;;5037499;28;20025;-70
2021/10/11 06:14:21;;;;;;;102.28;37.70;;;8.60;99.90;;;;;;5038790;28;20361;-69
2021/10/11 06:16:48;;;;;;;103.25;35.97;;;8.60;99.90;;;;;;5037458;28;20088;-69
2021/10/11 06:19:16;;;;;;;97.72;34.83;;;8.60;99.90;;;;;;5037072;28;20124;-69
2021/10/11 06:21:43;;;;;;;92.57;36.40;;;8.60;99.90;;;;;;5037333;28;20441;-67
2021/10/11 06:24:11;;;;;;;98.18;34.88;;;8.60;99.90;;;;;;5039065;28;20025;-68
2021/10/11 06:26:39;;;;;;;89.50;33.97;;;8.60;99.90;;;;;;5038130;28;20172;-68
2021/10/11 06:29:06;;;;;;;88.95;33.42;;;8.60;99.90;;;;;;5038158;28;20025;-69
2021/10/11 06:31:33;;;;;;;74.85;30.25;;;8.60;99.90;;;;;;5039888;28;20402;-69
2021/10/11 06:34:01;;;;;;;74.70;30.88;;;8.60;99.90;;;;;;5038112;28;20393;-69
2021/10/11 06:36:34;;;;;;;85.32;35.00;;;8.70;99.90;;;;;;5039628;28;20025;-68
2021/10/11 06:39:04;;;;;;;91.53;35.70;;;8.70;99.90;;;;;;5038101;28;20370;-68
2021/10/11 06:41:32;;;;;;;88.30;33.83;;;8.70;99.90;;;;;;5037985;28;20033;-68
2021/10/11 06:43:59;;;;;;;80.30;32.22;;;8.80;99.90;;;;;;5037507;28;20026;-68
2021/10/11 06:46:27;;;;;;;81.32;35.45;;;8.80;99.90;;;;;;5037911;28;20418;-68
2021/10/11 06:48:54;;;;;;;88.13;34.80;;;8.90;99.90;;;;;;5038266;28;20372;-68
2021/10/11 06:51:21;;;;;;;79.82;33.30;;;8.90;99.90;;;;;;5038409;28;20013;-68
2021/10/11 06:53:52;;;;;;;75.20;32.55;;;8.90;99.90;;;;;;5038538;28;20052;-68
2021/10/11 06:56:20;;;;;;;77.80;34.45;;;9.00;99.90;;;;;;5037839;28;20018;-68
2021/10/11 06:58:47;;;;;;;79.90;33.85;;;9.00;99.90;;;;;;5037951;28;20025;-67
2021/10/11 07:01:15;;;;;;;73.55;32.17;;;9.00;99.90;;;;;;5038300;28;20104;-68
2021/10/11 07:03:42;;;;;;;73.72;34.15;;;9.10;99.90;;;;;;5037718;28;20037;-68
2021/10/11 07:06:21;;;;;;;73.88;32.58;;;9.10;99.90;;;;;;5037904;28;20057;-67
2021/10/11 07:08:49;;;;;;;66.78;30.50;;;9.10;99.90;;;;;;5038785;28;20024;-67
2021/10/11 07:11:16;;;;;;;75.65;31.75;;;9.20;99.90;;;;;;5039107;28;20402;-67
2021/10/11 07:13:44;;;;;;;72.22;30.15;;;9.20;99.90;;;;;;5038795;28;20076;-69
2021/10/11 07:16:12;;;;;;;72.72;32.15;;;9.30;99.90;;;;;;5038917;28;20104;-68
2021/10/11 07:18:40;;;;;;;65.38;29.70;;;9.30;99.90;;;;;;5037424;28;20049;-67
2021/10/11 07:21:08;;;;;;;61.08;29.50;;;9.40;99.90;;;;;;5038365;28;20021;-68
2021/10/11 07:23:36;;;;;;;61.55;28.65;;;9.50;99.90;;;;;;5038839;28;20025;-69
2021/10/11 07:26:05;;;;;;;56.72;26.08;;;9.50;99.90;;;;;;5037898;28;20021;-69
2021/10/11 07:28:33;;;;;;;59.67;26.23;;;9.60;99.90;;;;;;5037823;28;20056;-68
2021/10/11 07:31:00;;;;;;;56.47;29.13;;;9.70;99.90;;;;;;5037334;28;20040;-68
2021/10/11 07:33:27;;;;;;;51.88;24.98;;;9.70;99.90;;;;;;5037610;28;20148;-68
2021/10/11 07:35:55;;;;;;;54.78;24.27;;;9.80;99.90;;;;;;5037659;28;20131;-68
2021/10/11 07:38:22;;;;;;;46.90;23.75;;;9.90;99.90;;;;;;5036960;28;20021;-68
2021/10/11 07:40:52;;;;;;;46.72;23.98;;;9.90;99.90;;;;;;5037066;28;20025;-69
2021/10/11 07:43:19;;;;;;;49.53;23.92;;;10.00;99.90;;;;;;5037004;28;20084;-69
2021/10/11 07:45:47;;;;;;;42.47;21.67;;;10.00;99.90;;;;;;5035611;28;20388;-69
2021/10/11 07:48:15;;;;;;;38.50;21.60;;;10.10;99.90;;;;;;5037158;28;20410;-66
2021/10/11 07:50:43;;;;;;;41.90;21.55;;;10.20;99.90;;;;;;5037812;28;20385;-66
2021/10/11 07:53:13;;;;;;;42.58;20.27;;;10.20;99.90;;;;;;5037788;28;20104;-66
2021/10/11 07:55:43;;;;;;;38.83;19.27;;;10.20;99.90;;;;;;5038660;28;20343;-66
2021/10/11 07:58:10;;;;;;;36.42;19.42;;;10.30;99.90;;;;;;5038221;28;20018;-66
2021/10/11 08:00:38;;;;;;;39.25;20.20;;;10.40;99.90;;;;;;5038397;28;20049;-66
2021/10/11 08:03:05;;;;;;;40.55;20.25;;;10.40;99.90;;;;;;5037638;28;20030;-67
2021/10/11 08:05:34;;;;;;;36.72;19.02;;;10.50;99.90;;;;;;5037674;28;20021;-67
2021/10/11 08:08:01;;;;;;;37.03;18.67;;;10.60;99.90;;;;;;5037144;28;20022;-67
2021/10/11 08:10:30;;;;;;;35.88;19.83;;;10.60;99.90;;;;;;5036539;28;20055;-67
2021/10/11 08:12:57;;;;;;;36.17;16.63;;;10.70;99.90;;;;;;5036584;28;20013;-76
2021/10/11 08:15:25;;;;;;;34.05;16.35;;;10.80;99.90;;;;;;5037004;28;20410;-67
2021/10/11 08:17:53;;;;;;;33.90;17.55;;;10.80;99.90;;;;;;5036845;28;20026;-67
2021/10/11 08:20:21;;;;;;;33.65;18.45;;;10.90;99.90;;;;;;5035529;28;20425;-67
2021/10/11 08:22:48;;;;;;;34.17;18.27;;;11.00;99.90;;;;;;5037037;28;20025;-67
2021/10/11 08:25:16;;;;;;;32.65;18.30;;;11.00;99.90;;;;;;5036590;28;20025;-67
2021/10/11 08:27:43;;;;;;;32.88;16.35;;;11.10;99.90;;;;;;5036342;28;20022;-67
2021/10/11 08:30:11;;;;;;;35.30;18.00;;;11.20;99.90;;;;;;5036534;28;20052;-67
2021/10/11 08:32:38;;;;;;;30.67;16.33;;;11.20;99.90;;;;;;5036176;28;20021;-67
2021/10/11 08:35:06;;;;;;;28.17;14.80;;;11.30;99.90;;;;;;5037378;28;20018;-67
2021/10/11 08:37:34;;;;;;;25.60;13.75;;;11.30;99.90;;;;;;5037481;28;20025;-67
2021/10/11 08:40:02;;;;;;;28.02;14.55;;;11.40;99.90;;;;;;5037240;28;20021;-67
2021/10/11 08:42:30;;;;;;;26.88;12.82;;;11.50;99.90;;;;;;5037181;28;20080;-67
2021/10/11 08:44:58;;;;;;;21.63;11.57;;;11.60;99.90;;;;;;5037133;28;20366;-66
2021/10/11 08:47:25;;;;;;;26.02;12.23;;;11.60;99.90;;;;;;5037034;28;20052;-66
2021/10/11 08:49:53;;;;;;;25.60;12.70;;;11.70;99.90;;;;;;5038979;28;20028;-67
2021/10/11 08:52:24;;;;;;;23.75;12.38;;;11.80;99.90;;;;;;5039152;28;20464;-67
2021/10/11 08:54:54;;;;;;;25.50;11.60;;;11.80;99.90;;;;;;5040203;28;20029;-68
2021/10/11 08:57:32;;;;;;;23.13;11.23;;;11.90;99.90;;;;;;5038996;28;20116;-67
2021/10/11 09:00:18;;;;;;;24.30;11.90;;;11.90;99.90;;;;;;5040140;28;20029;-67
2021/10/11 09:02:54;;;;;;;24.23;10.63;;;12.00;99.90;;;;;;5039981;28;20021;-67
2021/10/11 09:05:23;;;;;;;21.70;10.00;;;12.00;99.90;;;;;;5039950;28;20026;-67
2021/10/11 09:08:00;;;;;;;21.20;11.02;;;12.00;99.90;;;;;;5039431;28;20352;-67
2021/10/11 09:10:28;;;;;;;21.30;10.90;;;11.90;99.90;;;;;;5040062;28;20017;-67
2021/10/11 09:12:56;;;;;;;22.17;11.35;;;11.90;99.90;;;;;;5039917;28;20026;-67
2021/10/11 09:15:29;;;;;;;24.00;11.18;;;11.90;99.90;;;;;;5040749;28;20022;-67
2021/10/11 09:18:04;;;;;;;18.70;10.38;;;11.80;99.90;;;;;;5040823;28;20033;-67
2021/10/11 09:20:39;;;;;;;24.85;11.27;;;11.80;99.90;;;;;;5040583;28;20464;-67
2021/10/11 09:23:08;;;;;;;23.20;9.67;;;11.80;99.90;;;;;;5040504;28;20026;-67
2021/10/11 09:25:41;;;;;;;27.92;10.75;;;11.90;99.90;;;;;;5040717;28;20257;-67
2021/10/11 09:28:08;;;;;;;22.83;10.23;;;12.00;99.90;;;;;;5041180;28;20045;-67
2021/10/11 09:30:41;;;;;;;20.20;9.82;;;12.00;99.90;;;;;;5040374;28;20055;-67
2021/10/11 09:33:16;;;;;;;22.45;10.07;;;12.00;99.90;;;;;;5040274;28;20018;-67
2021/10/11 09:35:46;;;;;;;17.35;8.60;;;12.20;99.90;;;;;;5039650;28;20029;-67
2021/10/11 09:38:24;;;;;;;16.55;8.38;;;12.20;99.90;;;;;;5039520;28;20059;-67
2021/10/11 09:40:54;;;;;;;20.08;9.30;;;12.40;99.90;;;;;;5039310;28;20024;-67
2021/10/11 09:43:24;;;;;;;20.15;8.68;;;12.50;99.90;;;;;;5039607;28;20117;-67
2021/10/11 09:45:53;;;;;;;17.73;8.75;;;12.60;99.90;;;;;;5039256;28;20054;-67
2021/10/11 09:48:22;;;;;;;24.55;8.10;;;12.80;99.90;;;;;;5039403;28;20155;-68
2021/10/11 09:50:49;;;;;;;16.92;8.30;;;12.90;99.90;;;;;;5039137;28;20075;-68
2021/10/11 09:53:18;;;;;;;22.42;7.90;;;12.90;99.90;;;;;;5039048;28;20032;-67
2021/10/11 09:55:45;;;;;;;14.15;6.78;;;13.00;99.90;;;;;;5039543;28;20414;-67
2021/10/11 09:58:14;;;;;;;17.73;7.57;;;12.90;99.90;;;;;;5039909;28;20022;-67
2021/10/11 10:00:42;;;;;;;18.90;7.28;;;12.90;99.90;;;;;;5040280;28;20079;-67
2021/10/11 10:03:13;;;;;;;16.15;6.38;;;12.80;99.90;;;;;;5039942;28;20029;-67
2021/10/11 10:05:46;;;;;;;21.63;7.50;;;12.80;99.90;;;;;;5039893;28;20104;-67
2021/10/11 10:08:29;;;;;;;22.60;6.93;;;12.80;99.90;;;;;;5039702;28;20021;-67
2021/10/11 10:11:00;;;;;;;19.27;6.82;;;12.80;99.90;;;;;;5040151;28;20018;-67
2021/10/11 10:13:28;;;;;;;12.75;6.18;;;12.90;99.90;;;;;;5038627;28;20021;-67
2021/10/11 10:16:08;;;;;;;15.55;6.45;;;12.90;99.90;;;;;;5038707;28;20014;-67
2021/10/11 10:18:46;;;;;;;16.45;5.97;;;13.00;99.90;;;;;;5039061;28;20413;-67
2021/10/11 10:21:15;;;;;;;17.10;5.80;;;13.10;99.90;;;;;;5038540;28;20025;-66
2021/10/11 10:23:54;;;;;;;14.40;6.30;;;13.10;99.90;;;;;;5038984;28;20104;-67
2021/10/11 10:26:36;;;;;;;17.48;5.88;;;13.20;99.90;;;;;;5038402;28;20029;-66
2021/10/11 10:29:19;;;;;;;16.60;6.38;;;13.20;99.90;;;;;;5038390;28;20033;-67
2021/10/11 10:31:47;;;;;;;17.85;5.85;;;13.30;99.90;;;;;;5037267;28;20104;-66
2021/10/11 10:34:20;;;;;;;18.23;5.70;;;13.30;99.90;;;;;;5037890;28;20024;-66
2021/10/11 10:37:00;;;;;;;11.18;5.20;;;13.40;99.90;;;;;;5038572;28;20108;-67
2021/10/11 10:39:38;;;;;;;12.15;5.32;;;13.50;99.90;;;;;;5037987;28;20025;-66
2021/10/11 10:42:09;;;;;;;11.73;4.13;;;13.60;99.90;;;;;;5039058;28;20429;-66
2021/10/11 10:44:46;;;;;;;18.48;4.70;;;13.60;99.90;;;;;;5039201;28;20033;-66
2021/10/11 10:47:14;;;;;;;16.95;5.03;;;13.60;99.90;;;;;;5038828;28;20042;-66
2021/10/11 10:49:47;;;;;;;12.52;4.40;;;13.60;99.90;;;;;;5038116;28;20127;-66
2021/10/11 10:52:20;;;;;;;12.18;3.40;;;13.60;99.90;;;;;;5039655;28;20326;-67
2021/10/11 10:54:49;;;;;;;14.10;4.55;;;13.60;99.90;;;;;;5037978;28;20116;-66
2021/10/11 10:57:22;;;;;;;10.50;3.47;;;13.50;99.90;;;;;;5037979;28;20025;-67
2021/10/11 11:00:19;;;;;;;7.43;3.13;;;13.50;99.90;;;;;;5036804;28;20364;-67
2021/10/11 11:02:49;;;;;;;11.05;3.78;;;13.40;99.90;;;;;;5037786;28;20036;-67
2021/10/11 11:05:22;;;;;;;11.55;3.67;;;13.40;99.90;;;;;;5037549;28;20036;-67
2021/10/11 11:07:55;;;;;;;8.82;3.13;;;13.50;99.90;;;;;;5037826;28;20028;-67
2021/10/11 11:10:25;;;;;;;10.68;2.78;;;13.60;99.90;;;;;;5037558;28;20295;-67
2021/10/11 11:12:56;;;;;;;13.60;3.65;;;13.60;99.90;;;;;;5036973;28;20036;-67
2021/10/11 11:15:36;;;;;;;7.70;3.10;;;13.70;99.90;;;;;;5037484;28;20020;-67
2021/10/11 11:18:16;;;;;;;10.55;2.47;;;13.80;99.90;;;;;;5038992;28;20348;-67
2021/10/11 11:20:44;;;;;;;12.32;2.83;;;13.90;99.90;;;;;;5038333;28;20025;-67
2021/10/11 11:23:23;;;;;;;12.48;2.40;;;14.00;99.90;;;;;;5038316;28;20075;-67
2021/10/11 11:26:02;;;;;;;10.45;2.25;;;14.20;99.90;;;;;;5038448;28;20464;-67
2021/10/11 11:28:30;;;;;;;11.68;2.65;;;14.40;99.90;;;;;;5038293;28;20105;-67
2021/10/11 11:31:07;;;;;;;8.05;2.20;;;14.60;99.90;;;;;;5037014;28;20026;-67
2021/10/11 11:33:34;;;;;;;9.75;3.20;;;14.70;99.90;;;;;;5038037;28;20041;-67
2021/10/11 11:36:04;;;;;;;8.82;2.33;;;14.80;99.90;;;;;;5037948;28;20405;-67
2021/10/11 11:38:38;;;;;;;8.00;2.13;;;14.90;99.90;;;;;;5041114;28;20017;-67
2021/10/11 11:41:08;;;;;;;11.00;3.05;;;14.90;99.90;;;;;;5039393;28;20068;-67
2021/10/11 11:43:40;;;;;;;9.10;2.22;;;15.00;99.90;;;;;;5037974;28;20025;-67
2021/10/11 11:46:09;;;;;;;10.30;2.67;;;15.10;99.90;;;;;;5037696;28;20037;-67
2021/10/11 11:48:42;;;;;;;7.80;1.90;;;15.00;99.90;;;;;;5037880;28;20429;-67
2021/10/11 11:51:12;;;;;;;13.75;3.13;;;14.90;99.90;;;;;;5036748;28;20021;-67
2021/10/11 11:53:40;;;;;;;6.22;2.28;;;14.70;99.90;;;;;;5037768;28;20021;-67
2021/10/11 11:56:10;;;;;;;8.98;2.33;;;14.60;99.90;;;;;;5037438;28;20025;-67
2021/10/11 11:58:41;;;;;;;7.93;1.85;;;14.50;99.90;;;;;;5037047;28;20087;-67
2021/10/11 12:01:24;;;;;;;7.57;2.00;;;14.40;99.90;;;;;;5037308;28;20033;-67
2021/10/11 12:04:05;;;;;;;4.88;1.50;;;14.30;99.90;;;;;;5036716;28;20107;-67
2021/10/11 12:06:34;;;;;;;13.10;2.30;;;14.20;99.90;;;;;;5036583;28;20062;-67
2021/10/11 12:09:02;;;;;;;11.45;2.33;;;14.30;99.90;;;;;;5035585;28;20037;-67
2021/10/11 12:11:30;;;;;;;6.68;1.40;;;14.30;99.90;;;;;;5037175;28;20025;-67
2021/10/11 12:13:59;;;;;;;5.53;1.38;;;14.50;99.90;;;;;;5036528;28;20061;-67
2021/10/11 12:16:28;;;;;;;6.57;1.50;;;14.60;99.90;;;;;;5037140;28;20033;-67
2021/10/11 12:18:57;;;;;;;11.40;1.80;;;14.70;99.90;;;;;;5036821;28;20029;-67
2021/10/11 12:21:33;;;;;;;10.10;1.42;;;14.80;99.90;;;;;;5037913;28;20048;-67
2021/10/11 12:24:05;;;;;;;;;;;14.80;99.90;;;;;;5037226;28;20024;-67
2021/10/11 12:26:32;;;;;;;10.00;2.13;;;14.90;99.90;;;;;;5037936;28;20062;-67
2021/10/11 12:29:07;;;;;;;8.18;1.40;;;14.90;99.90;;;;;;5037852;28;20020;-67
2021/10/11 12:31:37;;;;;;;9.18;1.98;;;15.00;99.90;;;;;;5037878;28;20409;-67
2021/10/11 12:34:12;;;;;;;8.43;1.63;;;15.00;99.90;;;;;;5037600;28;20032;-67
2021/10/11 12:36:51;;;;;;;7.97;1.40;;;15.00;99.90;;;;;;5037846;28;20072;-67
2021/10/11 12:39:33;;;;;;;7.50;1.40;;;15.00;99.90;;;;;;5036998;28;20330;-67
2021/10/11 12:42:03;;;;;;;6.47;1.27;;;15.00;99.90;;;;;;5036299;28;20026;-67
2021/10/11 12:44:42;;;;;;;6.80;1.40;;;15.00;99.90;;;;;;5036584;28;20099;-67
2021/10/11 12:47:35;;;;;;;5.82;1.48;;;15.00;99.90;;;;;;5036387;28;20049;-67